createdAt,value
2023-01-29T00:00:33.189Z,19.37
2023-01-29T00:03:35.697Z,15.30
2023-01-29T00:09:38.599Z,17.40
2023-01-29T00:12:40.068Z,18.73
2023-01-29T00:15:41.483Z,16.00
2023-01-29T00:18:43.760Z,16.83
2023-01-29T00:21:45.687Z,19.23
2023-01-29T00:24:47.099Z,16.45
2023-01-29T00:27:48.562Z,16.60
2023-01-29T00:30:50.027Z,16.53
2023-01-29T00:33:51.875Z,16.97
2023-01-29T00:37:04.931Z,16.10
2023-01-29T00:40:07.002Z,16.83
2023-01-29T00:43:27.106Z,14.77
2023-01-29T00:46:28.610Z,16.02
2023-01-29T00:49:38.144Z,14.87
2023-01-29T00:52:43.120Z,17.48
2023-01-29T00:55:44.953Z,16.25
2023-01-29T00:58:46.348Z,16.38
2023-01-29T01:02:06.508Z,14.90
2023-01-29T01:05:19.221Z,14.98
2023-01-29T01:08:39.349Z,14.00
2023-01-29T01:11:40.794Z,16.73
2023-01-29T01:14:43.175Z,15.97
2023-01-29T01:20:51.431Z,15.77
2023-01-29T01:23:53.599Z,15.63
2023-01-29T01:26:55.066Z,17.23
2023-01-29T01:29:56.575Z,16.85
2023-01-29T01:32:58.063Z,15.67
2023-01-29T01:36:02.080Z,19.17
2023-01-29T01:39:33.644Z,14.07
2023-01-29T01:42:35.028Z,15.88
2023-01-29T01:45:38.016Z,14.73
2023-01-29T01:48:40.137Z,15.00
2023-01-29T01:51:47.919Z,17.02
2023-01-29T01:54:51.467Z,13.75
2023-01-29T01:57:59.324Z,17.25
2023-01-29T02:01:01.330Z,15.30
2023-01-29T02:04:25.873Z,14.20
2023-01-29T02:07:45.974Z,19.02
2023-01-29T02:10:48.764Z,16.55
2023-01-29T02:13:53.527Z,14.10
2023-01-29T02:17:01.359Z,17.55
2023-01-29T02:20:17.639Z,13.50
2023-01-29T02:23:31.528Z,14.50
2023-01-29T02:27:13.986Z,15.20
2023-01-29T02:30:44.909Z,15.07
2023-01-29T02:33:52.438Z,12.93
2023-01-29T02:37:11.923Z,13.88
2023-01-29T02:40:31.588Z,14.00
2023-01-29T02:43:55.243Z,14.23
2023-01-29T02:47:12.541Z,14.18
2023-01-29T02:50:34.366Z,13.35
2023-01-29T02:53:41.239Z,15.33
2023-01-29T02:56:56.859Z,13.18
2023-01-29T03:00:04.325Z,15.18
2023-01-29T03:03:16.019Z,13.13
2023-01-29T03:06:26.186Z,14.93
2023-01-29T03:09:41.729Z,13.68
2023-01-29T03:12:46.820Z,14.70
2023-01-29T03:16:01.354Z,14.48
2023-01-29T03:19:20.297Z,11.93
2023-01-29T03:22:23.585Z,14.70
2023-01-29T03:25:46.230Z,14.55
2023-01-29T03:29:07.474Z,13.35
2023-01-29T03:32:11.873Z,15.68
2023-01-29T03:35:20.927Z,12.60
2023-01-29T03:38:22.740Z,14.52
2023-01-29T03:41:38.328Z,14.77
2023-01-29T03:44:50.573Z,15.32
2023-01-29T03:48:03.669Z,12.65
2023-01-29T03:51:11.912Z,12.90
2023-01-29T03:54:39.275Z,14.07
2023-01-29T03:57:47.382Z,13.45
2023-01-29T04:01:02.730Z,15.27
2023-01-29T04:04:27.580Z,15.40
2023-01-29T04:07:33.411Z,14.23
2023-01-29T04:10:41.361Z,12.98
2023-01-29T04:13:43.658Z,13.90
2023-01-29T04:16:51.454Z,13.60
2023-01-29T04:20:11.249Z,16.48
2023-01-29T04:23:23.545Z,16.17
2023-01-29T04:26:28.375Z,16.02
2023-01-29T04:29:45.723Z,14.48
2023-01-29T04:32:59.755Z,16.42
2023-01-29T04:36:16.275Z,13.88
2023-01-29T04:39:27.206Z,15.43
2023-01-29T04:42:34.018Z,14.95
2023-01-29T04:45:54.152Z,14.63
2023-01-29T04:49:05.232Z,14.52
2023-01-29T04:52:20.224Z,12.00
2023-01-29T04:55:32.315Z,15.30
2023-01-29T04:58:44.473Z,15.90
2023-01-29T05:01:47.505Z,14.73
2023-01-29T05:04:50.001Z,14.88
2023-01-29T05:07:52.746Z,14.52
2023-01-29T05:10:57.056Z,14.65
2023-01-29T05:14:02.169Z,14.48
2023-01-29T05:17:09.599Z,14.23
2023-01-29T05:20:12.027Z,13.55
2023-01-29T05:23:22.189Z,13.85
2023-01-29T05:26:42.906Z,15.77
2023-01-29T05:29:46.771Z,14.23
2023-01-29T05:32:48.342Z,14.90
2023-01-29T05:35:50.521Z,15.33
2023-01-29T05:38:52.058Z,16.73
2023-01-29T05:41:53.501Z,15.77
2023-01-29T05:44:55.003Z,15.70
2023-01-29T05:47:57.867Z,15.33
2023-01-29T05:51:03.898Z,17.65
2023-01-29T05:54:05.516Z,14.82
2023-01-29T05:57:06.892Z,15.45
2023-01-29T06:00:09.249Z,15.35
2023-01-29T06:03:13.695Z,13.32
2023-01-29T06:06:15.473Z,15.77
2023-01-29T06:09:16.885Z,16.88
2023-01-29T06:12:18.304Z,14.07
2023-01-29T06:15:19.770Z,15.17
2023-01-29T06:18:21.235Z,17.50
2023-01-29T06:21:22.614Z,14.80
2023-01-29T06:24:24.083Z,17.27
2023-01-29T06:27:25.654Z,15.33
2023-01-29T06:30:28.339Z,15.15
2023-01-29T06:33:29.769Z,15.48
2023-01-29T06:36:31.205Z,16.73
2023-01-29T06:39:32.617Z,14.80
2023-01-29T06:42:37.180Z,15.77
2023-01-29T06:45:38.683Z,15.27
2023-01-29T06:48:40.111Z,16.53
2023-01-29T06:51:41.590Z,16.13
2023-01-29T06:54:43.027Z,16.03
2023-01-29T06:57:44.452Z,17.65
2023-01-29T07:00:46.080Z,15.80
2023-01-29T07:03:51.282Z,15.35
2023-01-29T07:06:52.669Z,16.45
2023-01-29T07:09:54.086Z,19.02
2023-01-29T07:12:55.574Z,18.57
2023-01-29T07:16:01.891Z,19.13
2023-01-29T07:19:03.516Z,19.60
2023-01-29T07:22:05.673Z,16.27
2023-01-29T07:25:07.926Z,21.55
2023-01-29T07:28:09.437Z,18.20
2023-01-29T07:31:13.216Z,17.30
2023-01-29T07:34:14.733Z,17.80
2023-01-29T07:37:16.125Z,17.53
2023-01-29T07:40:17.873Z,20.13
2023-01-29T07:43:19.494Z,17.83
2023-01-29T07:46:20.911Z,19.43
2023-01-29T07:49:22.298Z,23.70
2023-01-29T07:52:23.729Z,18.42
2023-01-29T07:55:25.663Z,22.08
2023-01-29T07:58:27.082Z,20.33
2023-01-29T08:01:28.817Z,22.05
2023-01-29T08:04:30.268Z,19.90
2023-01-29T08:07:31.740Z,22.53
2023-01-29T08:10:33.662Z,18.27
2023-01-29T08:13:35.163Z,18.23
2023-01-29T08:16:36.693Z,20.53
2023-01-29T08:19:38.156Z,19.00
2023-01-29T08:22:39.563Z,18.55
2023-01-29T08:25:41.390Z,19.05
2023-01-29T08:28:42.817Z,18.77
2023-01-29T08:31:44.245Z,19.23
2023-01-29T08:34:45.724Z,19.03
2023-01-29T08:38:01.264Z,19.47
2023-01-29T08:41:02.839Z,20.45
2023-01-29T08:44:04.700Z,18.83
2023-01-29T08:47:06.096Z,19.30
2023-01-29T08:50:08.167Z,18.85
2023-01-29T08:53:10.159Z,18.33
2023-01-29T08:56:11.663Z,18.65
2023-01-29T08:59:13.227Z,20.15
2023-01-29T09:02:14.685Z,19.57
2023-01-29T09:05:16.530Z,20.67
2023-01-29T09:08:18.076Z,17.35
2023-01-29T09:11:19.535Z,18.30
2023-01-29T09:14:21.083Z,18.40
2023-01-29T09:17:22.598Z,20.13
2023-01-29T09:20:24.043Z,21.73
2023-01-29T09:23:25.534Z,19.97
2023-01-29T09:26:27.012Z,18.20
2023-01-29T09:29:28.460Z,20.15
2023-01-29T09:35:54.167Z,18.50
2023-01-29T09:38:55.675Z,20.60
2023-01-29T09:42:13.875Z,26.77
2023-01-29T09:45:24.507Z,22.15
2023-01-29T09:48:30.173Z,20.08
2023-01-29T09:51:37.404Z,19.23
2023-01-29T09:54:59.584Z,17.08
2023-01-29T09:58:10.514Z,16.73
2023-01-29T10:01:46.844Z,18.20
2023-01-29T10:05:15.369Z,17.27
2023-01-29T10:08:29.455Z,15.25
2023-01-29T10:11:45.880Z,17.30
2023-01-29T10:14:53.197Z,18.25
2023-01-29T10:18:06.325Z,19.45
2023-01-29T10:21:29.654Z,18.65
2023-01-29T10:24:46.192Z,19.42
2023-01-29T10:27:53.964Z,21.42
2023-01-29T10:31:00.186Z,21.90
2023-01-29T10:34:27.686Z,18.83
2023-01-29T10:37:40.360Z,23.42
2023-01-29T10:40:50.610Z,22.80
2023-01-29T10:44:29.192Z,26.27
2023-01-29T10:47:50.743Z,19.65
2023-01-29T10:51:01.603Z,17.42
2023-01-29T10:54:09.124Z,20.00
2023-01-29T10:57:38.987Z,17.65
2023-01-29T11:00:41.664Z,17.75
2023-01-29T11:03:43.453Z,17.98
2023-01-29T11:06:45.411Z,17.00
2023-01-29T11:09:54.598Z,16.60
2023-01-29T11:12:57.169Z,15.63
2023-01-29T11:15:58.619Z,17.50
2023-01-29T11:19:01.719Z,17.30
2023-01-29T11:22:04.383Z,17.33
2023-01-29T11:25:18.508Z,18.75
2023-01-29T11:28:45.500Z,20.40
2023-01-29T11:31:47.355Z,17.75
2023-01-29T11:35:03.381Z,15.02
2023-01-29T11:38:16.968Z,14.63
2023-01-29T11:41:22.174Z,14.10
2023-01-29T11:44:28.524Z,14.57
2023-01-29T11:47:30.679Z,15.80
2023-01-29T11:50:33.631Z,17.30
2023-01-29T11:53:49.480Z,15.95
2023-01-29T11:56:51.829Z,15.77
2023-01-29T11:59:54.950Z,15.60
2023-01-29T12:02:59.654Z,17.20
2023-01-29T12:06:05.943Z,16.33
2023-01-29T12:09:16.869Z,16.52
2023-01-29T12:12:29.837Z,16.52
2023-01-29T12:15:31.320Z,14.70
2023-01-29T12:18:39.908Z,17.20
2023-01-29T12:22:20.525Z,16.50
2023-01-29T12:25:42.700Z,16.02
2023-01-29T12:29:22.009Z,17.00
2023-01-29T12:32:38.982Z,15.35
2023-01-29T12:36:31.454Z,16.67
2023-01-29T12:39:32.922Z,17.13
2023-01-29T12:42:36.764Z,16.92
2023-01-29T12:45:38.999Z,16.42
2023-01-29T12:48:43.604Z,14.50
2023-01-29T12:51:59.870Z,15.25
2023-01-29T12:55:11.132Z,14.18
2023-01-29T12:58:16.759Z,15.85
2023-01-29T13:01:28.909Z,13.60
2023-01-29T13:04:39.254Z,15.60
2023-01-29T13:07:47.290Z,15.85
2023-01-29T13:10:52.639Z,15.65
2023-01-29T13:14:06.723Z,13.48
2023-01-29T13:17:24.301Z,15.52
2023-01-29T13:20:30.498Z,15.63
2023-01-29T13:23:37.416Z,15.95
2023-01-29T13:26:40.596Z,14.93
2023-01-29T13:29:43.809Z,16.13
2023-01-29T13:32:54.172Z,14.75
2023-01-29T13:35:59.763Z,18.52
2023-01-29T13:39:07.503Z,14.38
2023-01-29T13:42:26.418Z,15.30
2023-01-29T13:45:27.853Z,15.43
2023-01-29T13:48:32.461Z,14.43
2023-01-29T13:51:36.595Z,14.13
2023-01-29T13:54:38.034Z,13.77
2023-01-29T13:57:39.448Z,15.63
2023-01-29T14:00:40.780Z,17.23
2023-01-29T14:04:04.059Z,16.25
2023-01-29T14:07:40.059Z,16.02
2023-01-29T14:10:43.071Z,15.75
2023-01-29T14:13:46.701Z,16.63
2023-01-29T14:16:49.862Z,16.27
2023-01-29T14:19:54.661Z,15.88
2023-01-29T14:22:59.488Z,14.98
2023-01-29T14:26:05.136Z,16.98
2023-01-29T14:29:14.494Z,17.75
2023-01-29T14:32:24.864Z,17.75
2023-01-29T14:35:30.539Z,16.95
2023-01-29T14:38:33.400Z,20.30
2023-01-29T14:41:36.120Z,18.60
2023-01-29T14:45:06.511Z,20.20
2023-01-29T14:48:11.032Z,17.35
2023-01-29T14:51:17.821Z,18.80
2023-01-29T14:54:28.149Z,17.83
2023-01-29T14:57:30.612Z,26.02
2023-01-29T15:03:49.697Z,27.27
2023-01-29T15:10:25.085Z,17.52
2023-01-29T15:13:37.893Z,17.70
2023-01-29T15:17:13.532Z,18.15
2023-01-29T15:20:34.609Z,18.63
2023-01-29T15:23:36.016Z,19.55
2023-01-29T15:26:37.483Z,20.45
2023-01-29T15:29:39.847Z,22.43
2023-01-29T15:32:41.298Z,17.38
2023-01-29T15:35:43.303Z,18.90
2023-01-29T15:38:44.766Z,19.10
2023-01-29T15:41:46.380Z,21.00
2023-01-29T15:44:48.008Z,17.15
2023-01-29T15:47:50.213Z,20.33
2023-01-29T15:50:54.687Z,20.38
2023-01-29T15:54:04.282Z,20.63
2023-01-29T15:57:06.185Z,19.98
2023-01-29T16:00:20.192Z,20.95
2023-01-29T16:03:28.157Z,19.77
2023-01-29T16:06:38.898Z,19.92
2023-01-29T16:09:40.476Z,20.13
2023-01-29T16:12:42.612Z,21.00
2023-01-29T16:15:56.048Z,21.25
2023-01-29T16:19:00.785Z,25.58
2023-01-29T16:22:05.750Z,34.00
2023-01-29T16:25:14.077Z,36.65
2023-01-29T16:28:17.045Z,40.58
2023-01-29T16:31:27.111Z,32.67
2023-01-29T16:34:43.463Z,28.38
2023-01-29T16:37:50.643Z,29.30
2023-01-29T16:41:28.251Z,27.63
2023-01-29T16:44:36.179Z,25.65
2023-01-29T16:47:41.345Z,25.77
2023-01-29T16:50:54.292Z,40.00
2023-01-29T16:54:11.119Z,25.70
2023-01-29T16:57:21.449Z,30.20
2023-01-29T17:00:28.553Z,28.38
2023-01-29T17:03:33.214Z,29.83
2023-01-29T17:06:35.074Z,29.35
2023-01-29T17:09:37.661Z,30.23
2023-01-29T17:12:39.217Z,29.52
2023-01-29T17:15:47.067Z,35.43
2023-01-29T17:18:48.564Z,34.88
2023-01-29T17:21:49.953Z,33.73
2023-01-29T17:24:51.552Z,33.90
2023-01-29T17:27:53.331Z,37.33
2023-01-29T17:31:05.872Z,33.60
2023-01-29T17:34:15.853Z,34.28
2023-01-29T17:37:17.275Z,32.92
2023-01-29T17:40:33.195Z,39.97
2023-01-29T17:43:34.766Z,35.08
2023-01-29T17:46:36.550Z,37.30
2023-01-29T17:49:37.984Z,38.75
2023-01-29T17:52:39.393Z,37.53
2023-01-29T17:55:40.827Z,42.03
2023-01-29T17:58:42.629Z,43.83
2023-01-29T18:01:45.565Z,43.67
2023-01-29T18:04:50.826Z,40.70
2023-01-29T18:07:54.681Z,50.13
2023-01-29T18:10:56.489Z,50.97
2023-01-29T18:13:58.425Z,49.72
2023-01-29T18:17:02.679Z,52.33
2023-01-29T18:20:13.011Z,49.43
2023-01-29T18:23:15.431Z,53.95
2023-01-29T18:29:18.731Z,50.45
2023-01-29T18:32:20.193Z,51.17
2023-01-29T18:35:22.010Z,47.60
2023-01-29T18:38:23.988Z,48.33
2023-01-29T18:41:25.596Z,43.78
2023-01-29T18:44:29.544Z,42.55
2023-01-29T18:47:31.105Z,40.70
2023-01-29T18:50:33.111Z,45.38
2023-01-29T18:53:34.529Z,42.53
2023-01-29T18:56:35.917Z,39.63
2023-01-29T18:59:37.336Z,44.75
2023-01-29T19:02:38.991Z,43.73
2023-01-29T19:05:40.482Z,44.27
2023-01-29T19:08:42.875Z,44.07
2023-01-29T19:14:45.700Z,52.13
2023-01-29T19:17:47.151Z,50.37
2023-01-29T19:20:49.962Z,47.43
2023-01-29T19:23:51.492Z,42.28
2023-01-29T19:26:53.389Z,42.77
2023-01-29T19:29:55.876Z,41.33
2023-01-29T19:32:57.420Z,45.80
2023-01-29T19:35:59.597Z,39.33
2023-01-29T19:39:00.994Z,38.88
2023-01-29T19:42:02.439Z,41.60
2023-01-29T19:45:05.422Z,44.10
2023-01-29T19:48:06.904Z,42.92
2023-01-29T19:51:10.627Z,44.13
2023-01-29T19:54:12.070Z,45.90
2023-01-29T19:57:13.501Z,46.17
2023-01-29T20:00:15.425Z,48.83
2023-01-29T20:03:17.027Z,50.47
2023-01-29T20:06:22.775Z,45.57
2023-01-29T20:09:24.229Z,45.97
2023-01-29T20:12:27.389Z,44.20
2023-01-29T20:15:28.869Z,40.83
2023-01-29T20:18:30.558Z,40.23
2023-01-29T20:21:31.991Z,40.73
2023-01-29T20:24:38.900Z,41.42
2023-01-29T20:27:40.328Z,49.38
2023-01-29T20:30:43.795Z,41.50
2023-01-29T20:33:45.279Z,41.38
2023-01-29T20:36:47.684Z,44.87
2023-01-29T20:42:51.165Z,41.92
2023-01-29T20:45:57.185Z,46.00
2023-01-29T20:48:58.646Z,43.15
2023-01-29T20:52:00.135Z,43.27
2023-01-29T20:55:02.423Z,44.77
2023-01-29T21:01:16.160Z,42.22
2023-01-29T21:04:17.594Z,39.70
2023-01-29T21:07:18.976Z,42.65
2023-01-29T21:10:23.492Z,39.88
2023-01-29T21:13:25.018Z,40.50
2023-01-29T21:16:26.849Z,40.07
2023-01-29T21:19:31.564Z,39.60
2023-01-29T21:22:33.310Z,37.85
2023-01-29T21:25:34.979Z,40.55
2023-01-29T21:28:36.559Z,44.17
2023-01-29T21:31:38.059Z,38.70
2023-01-29T21:34:39.893Z,42.63
2023-01-29T21:37:41.584Z,44.65
2023-01-29T21:40:42.955Z,41.95
2023-01-29T21:43:47.737Z,47.60
2023-01-29T21:46:49.154Z,45.15
2023-01-29T21:49:50.594Z,41.77
2023-01-29T21:52:54.395Z,43.53
2023-01-29T21:56:03.238Z,43.10
2023-01-29T21:59:04.914Z,63.38
2023-01-29T22:02:16.874Z,44.15
2023-01-29T22:05:20.136Z,50.72
2023-01-29T22:08:21.938Z,48.33
2023-01-29T22:11:23.391Z,48.93
2023-01-29T22:14:24.831Z,54.35
2023-01-29T22:17:26.353Z,55.73
2023-01-29T22:20:30.550Z,55.13
2023-01-29T22:23:32.606Z,68.15
2023-01-29T22:26:34.748Z,55.28
2023-01-29T22:29:39.203Z,62.20
2023-01-29T22:32:40.653Z,62.30
2023-01-29T22:35:42.133Z,66.20
2023-01-29T22:38:43.539Z,59.33
2023-01-29T22:41:45.029Z,71.73
2023-01-29T22:44:47.912Z,67.80
2023-01-29T22:47:49.342Z,75.18
2023-01-29T22:51:10.481Z,59.87
2023-01-29T22:54:12.140Z,63.72
2023-01-29T22:57:14.999Z,59.20
2023-01-29T23:00:17.383Z,61.67
2023-01-29T23:03:19.103Z,57.40
2023-01-29T23:06:23.819Z,54.87
2023-01-29T23:09:25.375Z,57.63
2023-01-29T23:12:26.791Z,68.35
2023-01-29T23:15:28.200Z,63.90
2023-01-29T23:18:29.646Z,57.38
2023-01-29T23:21:31.069Z,55.45
2023-01-29T23:24:32.699Z,53.38
2023-01-29T23:27:34.133Z,56.30
2023-01-29T23:30:35.610Z,52.97
2023-01-29T23:33:37.693Z,52.40
2023-01-29T23:36:39.081Z,57.10
2023-01-29T23:39:40.492Z,53.70
2023-01-29T23:42:41.861Z,56.35
2023-01-29T23:45:43.268Z,53.78
2023-01-29T23:48:44.664Z,49.72
2023-01-29T23:51:50.822Z,51.67
2023-01-29T23:54:52.205Z,48.42
2023-01-29T23:57:53.843Z,50.17
